createdAt,value
2022-12-28T00:01:33.556Z,0.43
2022-12-28T00:04:03.865Z,0.47
2022-12-28T00:06:32.680Z,0.60
2022-12-28T00:08:59.446Z,0.57
2022-12-28T00:11:31.092Z,0.50
2022-12-28T00:14:02.269Z,0.50
2022-12-28T00:16:40.642Z,0.50
2022-12-28T00:19:15.474Z,0.70
2022-12-28T00:21:43.368Z,0.63
2022-12-28T00:24:22.708Z,0.45
2022-12-28T00:26:50.268Z,0.40
2022-12-28T00:29:18.407Z,0.40
2022-12-28T00:31:47.956Z,0.52
2022-12-28T00:34:15.164Z,0.57
2022-12-28T00:37:11.289Z,0.50
2022-12-28T00:39:29.332Z,0.50
2022-12-28T00:41:56.074Z,0.43
2022-12-28T00:44:22.808Z,0.40
2022-12-28T00:46:49.597Z,0.70
2022-12-28T00:49:16.326Z,0.50
2022-12-28T00:51:43.116Z,0.40
2022-12-28T00:54:09.922Z,0.50
2022-12-28T00:56:36.694Z,0.30
2022-12-28T00:59:03.417Z,0.40
2022-12-28T01:01:30.367Z,0.38
2022-12-28T01:03:58.183Z,0.40
2022-12-28T01:06:26.009Z,0.40
2022-12-28T01:08:52.932Z,0.28
2022-12-28T01:11:26.242Z,0.50
2022-12-28T01:13:55.677Z,0.52
2022-12-28T01:16:27.232Z,0.50
2022-12-28T01:18:58.319Z,0.60
2022-12-28T01:21:29.790Z,0.40
2022-12-28T01:26:27.694Z,0.30
2022-12-28T01:28:54.974Z,0.38
2022-12-28T01:31:22.439Z,0.38
2022-12-28T01:33:49.660Z,0.63
2022-12-28T01:36:29.700Z,0.50
2022-12-28T01:38:59.505Z,0.30
2022-12-28T01:41:28.593Z,0.20
2022-12-28T01:43:55.235Z,0.30
2022-12-28T01:46:49.922Z,0.10
2022-12-28T01:49:31.626Z,0.20
2022-12-28T01:52:23.591Z,0.65
2022-12-28T01:55:13.385Z,0.50
2022-12-28T01:57:49.480Z,0.40
2022-12-28T02:00:17.683Z,0.30
2022-12-28T02:03:10.399Z,0.25
2022-12-28T02:05:41.707Z,0.13
2022-12-28T02:08:32.323Z,0.32
2022-12-28T02:10:59.266Z,0.30
2022-12-28T02:13:26.562Z,0.43
2022-12-28T02:15:53.493Z,0.75
2022-12-28T02:18:22.187Z,0.63
2022-12-28T02:21:08.587Z,1.00
2022-12-28T02:24:14.642Z,0.30
2022-12-28T02:27:20.052Z,0.10
2022-12-28T02:30:07.646Z,0.30
2022-12-28T02:33:07.120Z,0.20
2022-12-28T02:35:45.640Z,0.10
2022-12-28T02:38:24.155Z,0.28
2022-12-28T02:41:00.211Z,0.38
2022-12-28T02:43:27.719Z,0.40
2022-12-28T02:46:12.887Z,0.40
2022-12-28T02:49:04.332Z,0.40
2022-12-28T02:51:55.913Z,0.10
2022-12-28T02:57:45.374Z,0.40
2022-12-28T03:00:20.843Z,0.73
2022-12-28T03:02:56.217Z,0.40
2022-12-28T03:10:08.843Z,0.63
2022-12-28T03:12:59.962Z,0.82
2022-12-28T03:15:32.690Z,0.20
2022-12-28T03:18:34.910Z,0.30
2022-12-28T03:21:25.999Z,0.20
2022-12-28T03:24:13.678Z,0.28
2022-12-28T03:27:06.136Z,0.35
2022-12-28T03:29:59.231Z,0.20
2022-12-28T03:32:26.106Z,0.93
2022-12-28T03:34:52.901Z,0.25
2022-12-28T03:37:42.973Z,0.20
2022-12-28T03:40:20.634Z,0.20
2022-12-28T03:43:10.558Z,0.77
2022-12-28T03:46:10.107Z,0.50
2022-12-28T03:48:37.633Z,0.30
2022-12-28T03:51:04.517Z,0.50
2022-12-28T03:53:41.287Z,0.45
2022-12-28T03:56:13.505Z,0.20
2022-12-28T03:58:40.286Z,0.30
2022-12-28T04:01:07.276Z,1.25
2022-12-28T04:03:34.600Z,0.17
2022-12-28T04:06:01.636Z,0.57
2022-12-28T04:08:28.679Z,0.40
2022-12-28T04:10:55.593Z,0.50
2022-12-28T04:13:22.333Z,0.43
2022-12-28T04:16:00.377Z,0.47
2022-12-28T04:18:27.687Z,0.32
2022-12-28T04:20:54.620Z,0.47
2022-12-28T04:23:21.618Z,0.30
2022-12-28T04:26:07.850Z,0.75
2022-12-28T04:28:35.182Z,0.85
2022-12-28T04:31:03.718Z,0.50
2022-12-28T04:33:34.698Z,0.25
2022-12-28T04:36:13.935Z,0.30
2022-12-28T04:38:40.864Z,0.47
2022-12-28T04:41:09.273Z,0.50
2022-12-28T04:43:36.379Z,0.35
2022-12-28T04:46:22.943Z,0.63
2022-12-28T04:48:53.371Z,0.30
2022-12-28T04:51:36.718Z,0.22
2022-12-28T04:54:15.348Z,0.40
2022-12-28T04:56:53.220Z,0.10
2022-12-28T04:59:36.949Z,0.40
2022-12-28T05:02:03.794Z,0.43
2022-12-28T05:04:30.592Z,1.65
2022-12-28T05:06:57.340Z,0.32
2022-12-28T05:09:24.146Z,1.13
2022-12-28T05:11:50.946Z,0.32
2022-12-28T05:14:17.707Z,0.68
2022-12-28T05:16:44.451Z,0.35
2022-12-28T05:19:11.217Z,0.35
2022-12-28T05:21:40.027Z,0.20
2022-12-28T05:24:07.554Z,0.30
2022-12-28T05:26:35.720Z,0.40
2022-12-28T05:29:02.640Z,0.50
2022-12-28T05:31:29.541Z,0.50
2022-12-28T05:33:56.436Z,0.40
2022-12-28T05:36:26.584Z,0.40
2022-12-28T05:38:55.027Z,1.02
2022-12-28T05:41:28.401Z,0.32
2022-12-28T05:43:56.883Z,0.30
2022-12-28T05:46:31.591Z,0.63
2022-12-28T05:48:58.476Z,0.55
2022-12-28T05:51:28.950Z,0.43
2022-12-28T05:53:56.755Z,0.53
2022-12-28T05:56:27.123Z,0.13
2022-12-28T05:59:05.547Z,0.30
2022-12-28T06:01:36.529Z,0.32
2022-12-28T06:04:07.577Z,0.60
2022-12-28T06:06:36.028Z,0.30
2022-12-28T06:09:03.935Z,0.52
2022-12-28T06:11:31.647Z,0.55
2022-12-28T06:13:59.637Z,0.45
2022-12-28T06:16:30.436Z,0.63
2022-12-28T06:18:58.114Z,0.63
2022-12-28T06:21:30.969Z,0.57
2022-12-28T06:24:00.010Z,0.30
2022-12-28T06:26:32.376Z,0.50
2022-12-28T06:29:01.803Z,0.55
2022-12-28T06:31:35.211Z,0.40
2022-12-28T06:34:04.122Z,0.47
2022-12-28T06:36:37.511Z,0.25
2022-12-28T06:39:07.069Z,0.85
2022-12-28T06:41:34.693Z,0.30
2022-12-28T06:44:01.948Z,0.20
2022-12-28T06:46:30.580Z,0.30
2022-12-28T06:48:58.122Z,0.47
2022-12-28T06:51:36.231Z,0.20
2022-12-28T06:54:03.390Z,0.50
2022-12-28T06:56:33.211Z,0.80
2022-12-28T06:59:03.652Z,0.30
2022-12-28T07:01:38.428Z,0.70
2022-12-28T07:04:08.211Z,0.25
2022-12-28T07:06:38.846Z,0.20
2022-12-28T07:09:10.143Z,0.28
2022-12-28T07:11:37.258Z,0.60
2022-12-28T07:14:04.293Z,0.20
2022-12-28T07:18:59.447Z,0.30
2022-12-28T07:21:29.973Z,0.52
2022-12-28T07:23:58.122Z,0.40
2022-12-28T07:26:32.029Z,0.50
2022-12-28T07:29:02.012Z,0.60
2022-12-28T07:31:39.998Z,0.43
2022-12-28T07:34:10.866Z,0.40
2022-12-28T07:36:37.630Z,0.20
2022-12-28T07:39:05.021Z,0.35
2022-12-28T07:41:34.018Z,0.30
2022-12-28T07:44:01.080Z,0.57
2022-12-28T07:46:31.240Z,0.30
2022-12-28T07:48:58.245Z,0.43
2022-12-28T07:51:31.126Z,0.50
2022-12-28T07:53:59.347Z,0.63
2022-12-28T07:56:28.423Z,0.20
2022-12-28T07:58:58.750Z,0.52
2022-12-28T08:01:30.183Z,0.30
2022-12-28T08:04:00.871Z,0.40
2022-12-28T08:06:29.788Z,0.40
2022-12-28T08:09:00.336Z,0.50
2022-12-28T08:11:31.067Z,0.50
2022-12-28T08:13:59.170Z,0.45
2022-12-28T08:16:29.784Z,0.45
2022-12-28T08:18:56.585Z,0.45
2022-12-28T08:21:28.193Z,0.60
2022-12-28T08:23:55.462Z,0.52
2022-12-28T08:26:26.450Z,0.68
2022-12-28T08:28:56.915Z,0.38
2022-12-28T08:31:27.936Z,0.40
2022-12-28T08:33:56.875Z,0.73
2022-12-28T08:36:24.091Z,0.60
2022-12-28T08:38:52.117Z,0.30
2022-12-28T08:41:22.121Z,0.50
2022-12-28T08:43:49.992Z,0.40
2022-12-28T08:46:26.095Z,0.47
2022-12-28T08:48:55.464Z,0.40
2022-12-28T08:51:27.351Z,0.52
2022-12-28T08:53:54.191Z,0.60
2022-12-28T08:56:27.799Z,0.80
2022-12-28T08:58:55.917Z,0.50
2022-12-28T09:01:30.192Z,0.50
2022-12-28T09:03:59.597Z,0.40
2022-12-28T09:06:44.866Z,0.50
2022-12-28T09:09:15.997Z,0.40
2022-12-28T09:11:43.447Z,0.60
2022-12-28T09:14:18.473Z,0.60
2022-12-28T09:16:49.265Z,0.30
2022-12-28T09:19:16.031Z,0.80
2022-12-28T09:21:44.818Z,0.40
2022-12-28T09:24:13.450Z,1.17
2022-12-28T09:26:40.604Z,0.40
2022-12-28T09:29:11.713Z,0.22
2022-12-28T09:31:40.462Z,0.13
2022-12-28T09:36:59.503Z,0.50
2022-12-28T09:39:26.398Z,0.22
2022-12-28T09:42:05.090Z,0.50
2022-12-28T09:44:44.643Z,0.43
2022-12-28T09:47:45.770Z,0.93
2022-12-28T09:50:18.730Z,0.88
2022-12-28T09:53:05.411Z,0.50
2022-12-28T09:55:35.684Z,0.20
2022-12-28T09:58:04.450Z,0.75
2022-12-28T10:01:03.861Z,0.95
2022-12-28T10:03:42.516Z,1.13
2022-12-28T10:06:15.527Z,0.17
2022-12-28T10:08:56.200Z,0.35
2022-12-28T10:11:37.088Z,0.50
2022-12-28T10:14:35.896Z,1.02
2022-12-28T10:17:02.984Z,0.20
2022-12-28T10:19:30.273Z,0.40
2022-12-28T10:22:11.748Z,0.52
2022-12-28T10:27:29.166Z,0.70
2022-12-28T10:30:10.158Z,1.10
2022-12-28T10:33:03.842Z,0.30
2022-12-28T10:35:50.766Z,0.20
2022-12-28T10:38:30.194Z,0.45
2022-12-28T10:41:05.712Z,0.28
2022-12-28T10:43:40.777Z,0.45
2022-12-28T10:46:18.118Z,0.40
2022-12-28T10:48:54.758Z,0.50
2022-12-28T10:51:29.859Z,0.30
2022-12-28T10:53:58.328Z,0.30
2022-12-28T10:56:33.752Z,0.60
2022-12-28T10:59:12.843Z,0.30
2022-12-28T11:01:42.702Z,0.45
2022-12-28T11:04:25.122Z,0.50
2022-12-28T11:07:02.527Z,0.47
2022-12-28T11:09:35.181Z,0.30
2022-12-28T11:12:26.555Z,0.50
2022-12-28T11:14:54.152Z,0.50
2022-12-28T11:17:23.815Z,0.20
2022-12-28T11:19:58.153Z,0.25
2022-12-28T11:22:28.564Z,0.45
2022-12-28T11:24:56.693Z,0.37
2022-12-28T11:27:24.597Z,0.35
2022-12-28T11:29:54.257Z,0.20
2022-12-28T11:32:35.793Z,0.20
2022-12-28T11:35:03.573Z,0.30
2022-12-28T11:37:30.454Z,0.15
2022-12-28T11:39:58.744Z,0.57
2022-12-28T11:42:39.501Z,0.45
2022-12-28T11:45:15.965Z,0.40
2022-12-28T11:47:42.962Z,0.40
2022-12-28T11:50:34.630Z,0.35
2022-12-28T11:53:07.848Z,0.80
2022-12-28T11:56:03.829Z,0.50
2022-12-28T11:58:30.484Z,0.50
2022-12-28T12:00:59.948Z,0.40
2022-12-28T12:03:58.023Z,0.20
2022-12-28T12:06:47.071Z,0.28
2022-12-28T12:09:25.737Z,0.20
2022-12-28T12:12:17.685Z,0.75
2022-12-28T12:14:49.300Z,0.35
2022-12-28T12:17:45.534Z,0.73
2022-12-28T12:20:47.244Z,0.45
2022-12-28T12:26:13.875Z,0.10
2022-12-28T12:28:54.535Z,0.40
2022-12-28T12:31:45.260Z,0.20
2022-12-28T12:34:27.421Z,0.15
2022-12-28T12:37:45.089Z,0.20
2022-12-28T12:40:39.522Z,0.40
2022-12-28T12:43:37.470Z,0.40
2022-12-28T12:46:31.199Z,0.65
2022-12-28T12:49:26.375Z,0.65
2022-12-28T12:52:45.264Z,0.40
2022-12-28T12:55:56.205Z,0.28
2022-12-28T12:59:02.913Z,0.28
2022-12-28T13:02:11.303Z,0.30
2022-12-28T13:04:41.581Z,0.40
2022-12-28T13:07:20.752Z,0.28
2022-12-28T13:09:49.423Z,0.40
2022-12-28T13:12:18.836Z,0.75
2022-12-28T13:14:48.868Z,0.40
2022-12-28T13:17:21.716Z,0.40
2022-12-28T13:19:48.840Z,0.40
2022-12-28T13:22:33.553Z,0.38
2022-12-28T13:25:00.338Z,0.65
2022-12-28T13:27:35.323Z,0.50
2022-12-28T13:30:03.835Z,0.52
2022-12-28T13:32:38.433Z,0.30
2022-12-28T13:35:24.649Z,0.43
2022-12-28T13:38:14.233Z,0.60
2022-12-28T13:40:50.619Z,2.40
2022-12-28T13:43:45.162Z,0.93
2022-12-28T13:46:17.085Z,7.68
2022-12-28T13:48:48.703Z,11.10
2022-12-28T13:51:18.609Z,4.00
2022-12-28T13:53:51.714Z,3.60
2022-12-28T13:56:20.675Z,1.35
2022-12-28T13:59:01.527Z,2.58
2022-12-28T14:01:37.575Z,1.60
2022-12-28T14:04:50.655Z,4.68
2022-12-28T14:09:23.264Z,1.45
2022-12-28T14:11:50.810Z,1.17
2022-12-28T14:14:18.379Z,0.70
2022-12-28T14:16:45.789Z,1.02
2022-12-28T14:19:13.491Z,2.00
2022-12-28T14:21:44.035Z,1.58
2022-12-28T14:24:16.487Z,1.13
2022-12-28T14:26:57.857Z,1.33
2022-12-28T14:29:31.171Z,0.75
2022-12-28T14:32:00.790Z,0.88
2022-12-28T14:34:30.719Z,1.55
2022-12-28T14:36:59.214Z,0.98
2022-12-28T14:39:41.009Z,1.10
2022-12-28T14:42:24.346Z,1.35
2022-12-28T14:44:56.231Z,1.83
2022-12-28T14:47:46.219Z,1.75
2022-12-28T14:50:27.804Z,0.65
2022-12-28T14:53:15.946Z,0.80
2022-12-28T14:56:06.728Z,0.70
2022-12-28T14:58:56.847Z,0.60
2022-12-28T15:01:24.902Z,0.50
2022-12-28T15:03:57.047Z,0.70
2022-12-28T15:06:28.764Z,0.50
2022-12-28T15:08:58.786Z,0.60
2022-12-28T15:11:29.212Z,0.50
2022-12-28T15:13:57.690Z,0.53
2022-12-28T15:16:25.050Z,0.55
2022-12-28T15:18:52.834Z,0.50
2022-12-28T15:21:22.606Z,0.52
2022-12-28T15:23:53.764Z,0.50
2022-12-28T15:26:23.423Z,0.73
2022-12-28T15:28:50.926Z,0.40
2022-12-28T15:31:21.536Z,0.63
2022-12-28T15:33:48.584Z,0.50
2022-12-28T15:36:19.154Z,0.60
2022-12-28T15:38:47.606Z,0.45
2022-12-28T15:41:34.442Z,0.75
2022-12-28T15:44:01.405Z,0.50
2022-12-28T15:46:29.360Z,1.05
2022-12-28T15:48:56.315Z,0.80
2022-12-28T15:51:23.134Z,0.60
2022-12-28T15:53:50.077Z,0.73
2022-12-28T15:56:26.374Z,1.88
2022-12-28T15:58:54.939Z,2.20
2022-12-28T16:01:23.265Z,1.90
2022-12-28T16:03:56.174Z,1.20
2022-12-28T16:06:25.335Z,2.05
2022-12-28T16:08:57.197Z,0.95
2022-12-28T16:11:24.706Z,1.83
2022-12-28T16:13:54.803Z,1.00
2022-12-28T16:16:23.062Z,1.30
2022-12-28T16:18:50.624Z,1.58
2022-12-28T16:21:17.398Z,1.20
2022-12-28T16:23:45.071Z,1.38
2022-12-28T16:26:13.580Z,1.10
2022-12-28T16:28:40.588Z,1.17
2022-12-28T16:31:08.247Z,0.88
2022-12-28T16:33:35.407Z,1.42
2022-12-28T16:36:02.185Z,1.17
2022-12-28T16:38:29.205Z,1.20
2022-12-28T16:40:57.167Z,1.33
2022-12-28T16:43:24.468Z,1.00
2022-12-28T16:45:51.374Z,0.88
2022-12-28T16:48:18.960Z,1.20
2022-12-28T16:50:57.058Z,1.00
2022-12-28T16:53:24.893Z,0.90
2022-12-28T16:55:51.870Z,0.90
2022-12-28T16:58:19.527Z,0.93
2022-12-28T17:00:46.522Z,1.05
2022-12-28T17:03:13.405Z,2.22
2022-12-28T17:05:40.193Z,4.05
2022-12-28T17:08:08.208Z,1.10
2022-12-28T17:10:34.982Z,0.80
2022-12-28T17:13:02.211Z,0.60
2022-12-28T17:15:28.965Z,0.68
2022-12-28T17:17:55.748Z,0.90
2022-12-28T17:20:22.566Z,1.00
2022-12-28T17:22:49.399Z,0.70
2022-12-28T17:25:16.173Z,1.23
2022-12-28T17:27:43.034Z,0.80
2022-12-28T17:30:10.395Z,0.77
2022-12-28T17:32:37.140Z,0.60
2022-12-28T17:35:04.218Z,0.90
2022-12-28T17:37:31.088Z,0.55
2022-12-28T17:39:58.062Z,0.88
2022-12-28T17:42:25.017Z,0.68
2022-12-28T17:44:51.879Z,0.95
2022-12-28T17:47:18.652Z,1.08
2022-12-28T17:49:45.384Z,1.40
2022-12-28T17:52:17.192Z,1.05
2022-12-28T17:54:43.947Z,0.88
2022-12-28T17:57:10.749Z,0.88
2022-12-28T17:59:37.558Z,0.75
2022-12-28T18:02:05.136Z,0.60
2022-12-28T18:04:32.073Z,0.80
2022-12-28T18:06:58.807Z,1.00
2022-12-28T18:09:27.940Z,0.98
2022-12-28T18:11:55.301Z,1.13
2022-12-28T18:14:22.428Z,0.80
2022-12-28T18:16:49.194Z,0.55
2022-12-28T18:19:15.989Z,0.70
2022-12-28T18:21:42.725Z,0.50
2022-12-28T18:24:12.916Z,0.60
2022-12-28T18:26:40.184Z,0.50
2022-12-28T18:29:07.009Z,1.30
2022-12-28T18:31:34.258Z,1.02
2022-12-28T18:34:02.377Z,0.70
2022-12-28T18:36:29.591Z,0.90
2022-12-28T18:38:56.345Z,0.85
2022-12-28T18:41:23.112Z,0.88
2022-12-28T18:43:53.721Z,0.60
2022-12-28T18:46:20.636Z,0.55
2022-12-28T18:48:47.456Z,0.70
2022-12-28T18:51:17.325Z,0.75
2022-12-28T18:53:45.043Z,0.55
2022-12-28T18:56:18.493Z,0.40
2022-12-28T18:58:53.530Z,1.23
2022-12-28T19:04:11.841Z,0.60
2022-12-28T19:06:39.173Z,0.65
2022-12-28T19:09:08.457Z,0.68
2022-12-28T19:11:36.951Z,0.60
2022-12-28T19:14:06.297Z,0.47
2022-12-28T19:16:33.933Z,0.43
2022-12-28T19:19:00.962Z,0.70
2022-12-28T19:21:30.423Z,0.65
2022-12-28T19:24:05.005Z,0.63
2022-12-28T19:26:34.013Z,0.50
2022-12-28T19:29:01.118Z,0.45
2022-12-28T19:31:28.330Z,0.52
2022-12-28T19:33:55.809Z,0.50
2022-12-28T19:36:22.614Z,0.60
2022-12-28T19:38:49.384Z,0.82
2022-12-28T19:41:16.490Z,0.60
2022-12-28T19:43:44.326Z,0.60
2022-12-28T19:46:18.084Z,0.73
2022-12-28T19:48:45.408Z,0.55
2022-12-28T19:51:13.441Z,0.50
2022-12-28T19:53:40.830Z,0.50
2022-12-28T19:56:13.547Z,0.52
2022-12-28T19:58:43.471Z,0.60
2022-12-28T20:01:19.478Z,0.63
2022-12-28T20:03:47.521Z,0.90
2022-12-28T20:06:25.254Z,0.57
2022-12-28T20:09:00.508Z,0.88
2022-12-28T20:11:29.036Z,0.43
2022-12-28T20:14:02.174Z,0.85
2022-12-28T20:16:32.089Z,0.55
2022-12-28T20:19:01.425Z,0.60
2022-12-28T20:21:28.579Z,0.70
2022-12-28T20:23:55.322Z,0.70
2022-12-28T20:26:28.226Z,0.60
2022-12-28T20:28:57.485Z,0.50
2022-12-28T20:31:24.693Z,1.08
2022-12-28T20:33:52.143Z,0.75
2022-12-28T20:36:22.769Z,0.82
2022-12-28T20:38:50.091Z,1.00
2022-12-28T20:41:41.580Z,0.73
2022-12-28T20:46:48.161Z,0.80
2022-12-28T20:49:15.013Z,0.63
2022-12-28T20:51:42.715Z,1.25
2022-12-28T20:54:10.818Z,1.40
2022-12-28T20:56:38.668Z,0.70
2022-12-28T20:59:05.870Z,0.70
2022-12-28T21:01:33.013Z,1.05
2022-12-28T21:03:59.985Z,0.80
2022-12-28T21:06:26.791Z,0.65
2022-12-28T21:08:53.552Z,0.75
2022-12-28T21:11:20.545Z,0.85
2022-12-28T21:13:47.316Z,1.45
2022-12-28T21:16:15.799Z,1.30
2022-12-28T21:18:42.725Z,0.60
2022-12-28T21:21:19.150Z,1.38
2022-12-28T21:23:46.194Z,0.80
2022-12-28T21:26:17.241Z,0.73
2022-12-28T21:28:44.280Z,0.90
2022-12-28T21:31:11.881Z,1.00
2022-12-28T21:33:39.709Z,1.17
2022-12-28T21:36:19.452Z,0.57
2022-12-28T21:38:48.730Z,1.13
2022-12-28T21:41:41.530Z,0.90
2022-12-28T21:44:11.596Z,0.70
2022-12-28T21:46:38.723Z,0.63
2022-12-28T21:49:06.209Z,0.85
2022-12-28T21:51:38.582Z,0.70
2022-12-28T21:54:14.827Z,1.00
2022-12-28T21:56:43.938Z,0.98
2022-12-28T21:59:12.966Z,1.02
2022-12-28T22:01:59.863Z,0.90
2022-12-28T22:05:03.606Z,0.70
2022-12-28T22:07:31.522Z,0.75
2022-12-28T22:10:16.766Z,0.60
2022-12-28T22:12:43.628Z,1.02
2022-12-28T22:15:36.063Z,1.23
2022-12-28T22:19:00.401Z,1.23
2022-12-28T22:21:10.137Z,1.33
2022-12-28T22:23:36.985Z,1.02
2022-12-28T22:26:03.803Z,1.02
2022-12-28T22:28:30.820Z,0.88
2022-12-28T22:30:57.641Z,1.20
2022-12-28T22:33:24.402Z,0.95
2022-12-28T22:35:51.148Z,1.02
2022-12-28T22:38:17.887Z,0.93
2022-12-28T22:40:44.627Z,0.90
2022-12-28T22:43:11.450Z,0.85
2022-12-28T22:45:38.258Z,0.77
2022-12-28T22:48:05.450Z,1.05
2022-12-28T22:50:32.215Z,1.60
2022-12-28T22:52:59.160Z,0.93
2022-12-28T22:55:26.241Z,1.33
2022-12-28T22:57:53.014Z,0.82
2022-12-28T23:00:19.839Z,0.90
2022-12-28T23:02:46.977Z,2.15
2022-12-28T23:05:21.366Z,0.75
2022-12-28T23:08:14.484Z,0.40
2022-12-28T23:14:44.534Z,0.90
2022-12-28T23:17:14.847Z,0.93
2022-12-28T23:20:01.442Z,0.73
2022-12-28T23:22:49.496Z,0.73
2022-12-28T23:25:40.457Z,1.00
2022-12-28T23:28:12.036Z,0.22
2022-12-28T23:30:42.168Z,0.75
2022-12-28T23:33:09.005Z,0.80
2022-12-28T23:35:35.794Z,0.60
2022-12-28T23:38:02.536Z,0.90
2022-12-28T23:40:29.312Z,1.27
2022-12-28T23:42:56.074Z,0.80
2022-12-28T23:45:22.923Z,0.73
2022-12-28T23:47:53.569Z,0.90
2022-12-28T23:50:20.727Z,1.05
2022-12-28T23:52:47.634Z,0.60
2022-12-28T23:55:14.474Z,0.70
2022-12-28T23:57:41.566Z,0.70
